sensor_id;sensor_type;location;lat;lon;timestamp;temperature;humidity
11591;DHT22;5851;54.050;9.974;2023-09-08T00:00:16;20.10;92.80
11591;DHT22;5851;54.050;9.974;2023-09-08T00:02:43;20.10;92.50
11591;DHT22;5851;54.050;9.974;2023-09-08T00:05:10;20.10;92.60
11591;DHT22;5851;54.050;9.974;2023-09-08T00:07:37;20.20;92.20
11591;DHT22;5851;54.050;9.974;2023-09-08T00:10:04;20.20;92.10
11591;DHT22;5851;54.050;9.974;2023-09-08T00:12:33;20.20;92.20
11591;DHT22;5851;54.050;9.974;2023-09-08T00:15:00;20.20;92.10
11591;DHT22;5851;54.050;9.974;2023-09-08T00:17:27;20.20;92.10
11591;DHT22;5851;54.050;9.974;2023-09-08T00:19:56;20.00;92.30
11591;DHT22;5851;54.050;9.974;2023-09-08T00:22:23;19.80;92.60
11591;DHT22;5851;54.050;9.974;2023-09-08T00:24:50;19.80;92.60
11591;DHT22;5851;54.050;9.974;2023-09-08T00:27:17;19.80;93.00
11591;DHT22;5851;54.050;9.974;2023-09-08T00:29:45;19.80;92.50
11591;DHT22;5851;54.050;9.974;2023-09-08T00:32:12;19.80;92.50
11591;DHT22;5851;54.050;9.974;2023-09-08T00:34:40;19.80;92.60
11591;DHT22;5851;54.050;9.974;2023-09-08T00:37:07;19.70;92.70
11591;DHT22;5851;54.050;9.974;2023-09-08T00:39:35;19.50;92.90
11591;DHT22;5851;54.050;9.974;2023-09-08T00:42:02;19.70;92.70
11591;DHT22;5851;54.050;9.974;2023-09-08T00:44:29;19.70;92.50
11591;DHT22;5851;54.050;9.974;2023-09-08T00:46:58;19.60;92.60
11591;DHT22;5851;54.050;9.974;2023-09-08T00:49:25;19.70;92.50
11591;DHT22;5851;54.050;9.974;2023-09-08T00:51:52;19.80;92.40
11591;DHT22;5851;54.050;9.974;2023-09-08T00:54:18;19.80;92.20
11591;DHT22;5851;54.050;9.974;2023-09-08T00:56:46;19.80;92.20
11591;DHT22;5851;54.050;9.974;2023-09-08T00:59:15;19.80;92.20
11591;DHT22;5851;54.050;9.974;2023-09-08T01:01:42;19.70;92.30
11591;DHT22;5851;54.050;9.974;2023-09-08T01:04:11;19.50;92.60
11591;DHT22;5851;54.050;9.974;2023-09-08T01:06:38;19.40;92.70
11591;DHT22;5851;54.050;9.974;2023-09-08T01:09:05;19.40;92.70
11591;DHT22;5851;54.050;9.974;2023-09-08T01:11:32;19.50;92.40
11591;DHT22;5851;54.050;9.974;2023-09-08T01:13:59;19.50;92.20
11591;DHT22;5851;54.050;9.974;2023-09-08T01:16:26;19.60;92.20
11591;DHT22;5851;54.050;9.974;2023-09-08T01:18:54;19.40;92.20
11591;DHT22;5851;54.050;9.974;2023-09-08T01:24:27;19.40;92.20
11591;DHT22;5851;54.050;9.974;2023-09-08T01:27:01;19.50;92.30
11591;DHT22;5851;54.050;9.974;2023-09-08T01:29:29;19.50;92.10
11591;DHT22;5851;54.050;9.974;2023-09-08T01:31:56;19.60;92.10
11591;DHT22;5851;54.050;9.974;2023-09-08T01:34:23;19.60;92.00
11591;DHT22;5851;54.050;9.974;2023-09-08T01:36:51;19.50;92.10
11591;DHT22;5851;54.050;9.974;2023-09-08T01:39:17;19.50;92.00
11591;DHT22;5851;54.050;9.974;2023-09-08T01:41:44;19.50;91.90
11591;DHT22;5851;54.050;9.974;2023-09-08T01:44:13;19.50;91.90
11591;DHT22;5851;54.050;9.974;2023-09-08T01:46:39;19.40;91.70
11591;DHT22;5851;54.050;9.974;2023-09-08T01:49:06;19.40;91.80
11591;DHT22;5851;54.050;9.974;2023-09-08T01:51:33;19.30;91.80
11591;DHT22;5851;54.050;9.974;2023-09-08T01:54:00;19.30;92.10
11591;DHT22;5851;54.050;9.974;2023-09-08T01:56:27;19.30;92.00
11591;DHT22;5851;54.050;9.974;2023-09-08T01:58:54;19.30;91.80
11591;DHT22;5851;54.050;9.974;2023-09-08T02:01:22;19.30;92.00
11591;DHT22;5851;54.050;9.974;2023-09-08T02:03:49;19.20;91.90
11591;DHT22;5851;54.050;9.974;2023-09-08T02:06:16;19.20;92.20
11591;DHT22;5851;54.050;9.974;2023-09-08T02:08:43;19.30;92.00
11591;DHT22;5851;54.050;9.974;2023-09-08T02:11:09;19.20;91.90
11591;DHT22;5851;54.050;9.974;2023-09-08T02:13:36;19.00;91.90
11591;DHT22;5851;54.050;9.974;2023-09-08T02:16:03;18.90;92.50
11591;DHT22;5851;54.050;9.974;2023-09-08T02:18:32;18.70;92.60
11591;DHT22;5851;54.050;9.974;2023-09-08T02:20:58;18.70;92.60
11591;DHT22;5851;54.050;9.974;2023-09-08T02:23:25;18.70;92.40
11591;DHT22;5851;54.050;9.974;2023-09-08T02:25:52;18.70;92.40
11591;DHT22;5851;54.050;9.974;2023-09-08T02:28:19;18.70;92.20
11591;DHT22;5851;54.050;9.974;2023-09-08T02:30:46;18.70;92.20
11591;DHT22;5851;54.050;9.974;2023-09-08T02:33:13;18.60;92.30
11591;DHT22;5851;54.050;9.974;2023-09-08T02:35:41;18.40;92.80
11591;DHT22;5851;54.050;9.974;2023-09-08T02:38:08;18.40;92.60
11591;DHT22;5851;54.050;9.974;2023-09-08T02:40:35;18.40;92.60
11591;DHT22;5851;54.050;9.974;2023-09-08T02:43:02;18.20;92.90
11591;DHT22;5851;54.050;9.974;2023-09-08T02:45:29;18.10;93.10
11591;DHT22;5851;54.050;9.974;2023-09-08T02:47:56;18.20;93.00
11591;DHT22;5851;54.050;9.974;2023-09-08T02:50:23;18.30;92.80
11591;DHT22;5851;54.050;9.974;2023-09-08T02:52:52;18.30;92.50
11591;DHT22;5851;54.050;9.974;2023-09-08T02:55:19;18.40;92.70
11591;DHT22;5851;54.050;9.974;2023-09-08T02:57:46;18.30;92.30
11591;DHT22;5851;54.050;9.974;2023-09-08T03:00:13;18.30;92.70
11591;DHT22;5851;54.050;9.974;2023-09-08T03:02:40;18.20;92.30
11591;DHT22;5851;54.050;9.974;2023-09-08T03:05:08;18.40;92.50
11591;DHT22;5851;54.050;9.974;2023-09-08T03:07:34;18.30;92.20
11591;DHT22;5851;54.050;9.974;2023-09-08T03:10:05;18.30;92.70
11591;DHT22;5851;54.050;9.974;2023-09-08T03:12:32;18.40;92.10
11591;DHT22;5851;54.050;9.974;2023-09-08T03:15:00;18.40;92.20
11591;DHT22;5851;54.050;9.974;2023-09-08T03:17:27;18.40;92.00
11591;DHT22;5851;54.050;9.974;2023-09-08T03:19:54;18.40;91.90
11591;DHT22;5851;54.050;9.974;2023-09-08T03:22:21;18.30;91.90
11591;DHT22;5851;54.050;9.974;2023-09-08T03:24:49;18.30;91.90
11591;DHT22;5851;54.050;9.974;2023-09-08T03:27:17;18.20;92.20
11591;DHT22;5851;54.050;9.974;2023-09-08T03:29:44;18.20;92.30
11591;DHT22;5851;54.050;9.974;2023-09-08T03:32:11;18.20;92.10
11591;DHT22;5851;54.050;9.974;2023-09-08T03:34:37;18.20;92.30
11591;DHT22;5851;54.050;9.974;2023-09-08T03:37:05;18.10;92.20
11591;DHT22;5851;54.050;9.974;2023-09-08T03:39:32;18.00;92.40
11591;DHT22;5851;54.050;9.974;2023-09-08T03:41:58;18.10;92.40
11591;DHT22;5851;54.050;9.974;2023-09-08T03:44:27;18.20;92.40
11591;DHT22;5851;54.050;9.974;2023-09-08T03:46:54;18.10;92.30
11591;DHT22;5851;54.050;9.974;2023-09-08T03:49:20;18.10;92.20
11591;DHT22;5851;54.050;9.974;2023-09-08T03:51:47;18.10;92.30
11591;DHT22;5851;54.050;9.974;2023-09-08T03:54:14;18.00;92.50
11591;DHT22;5851;54.050;9.974;2023-09-08T03:56:41;18.00;92.30
11591;DHT22;5851;54.050;9.974;2023-09-08T03:59:08;17.90;92.50
11591;DHT22;5851;54.050;9.974;2023-09-08T04:01:36;17.80;92.80
11591;DHT22;5851;54.050;9.974;2023-09-08T04:04:03;17.70;92.70
11591;DHT22;5851;54.050;9.974;2023-09-08T04:06:30;17.80;92.70
11591;DHT22;5851;54.050;9.974;2023-09-08T04:08:57;17.60;92.90
11591;DHT22;5851;54.050;9.974;2023-09-08T04:11:24;17.60;92.90
11591;DHT22;5851;54.050;9.974;2023-09-08T04:13:51;17.60;92.90
11591;DHT22;5851;54.050;9.974;2023-09-08T04:16:18;17.70;92.40
11591;DHT22;5851;54.050;9.974;2023-09-08T04:18:46;17.70;92.40
11591;DHT22;5851;54.050;9.974;2023-09-08T04:21:13;17.60;92.40
11591;DHT22;5851;54.050;9.974;2023-09-08T04:23:40;17.70;92.50
11591;DHT22;5851;54.050;9.974;2023-09-08T04:26:07;17.60;92.70
11591;DHT22;5851;54.050;9.974;2023-09-08T04:28:34;17.50;92.90
11591;DHT22;5851;54.050;9.974;2023-09-08T04:31:01;17.50;93.00
11591;DHT22;5851;54.050;9.974;2023-09-08T04:33:29;17.50;93.00
11591;DHT22;5851;54.050;9.974;2023-09-08T04:35:58;17.50;92.80
11591;DHT22;5851;54.050;9.974;2023-09-08T04:38:24;17.50;93.00
11591;DHT22;5851;54.050;9.974;2023-09-08T04:40:51;17.50;92.90
11591;DHT22;5851;54.050;9.974;2023-09-08T04:43:18;17.60;92.80
11591;DHT22;5851;54.050;9.974;2023-09-08T04:45:45;17.60;92.70
11591;DHT22;5851;54.050;9.974;2023-09-08T04:48:12;17.60;92.70
11591;DHT22;5851;54.050;9.974;2023-09-08T04:50:39;17.60;92.50
11591;DHT22;5851;54.050;9.974;2023-09-08T04:53:07;17.70;92.50
11591;DHT22;5851;54.050;9.974;2023-09-08T04:55:34;17.80;92.20
11591;DHT22;5851;54.050;9.974;2023-09-08T04:58:01;17.60;92.80
11591;DHT22;5851;54.050;9.974;2023-09-08T05:00:28;17.60;92.60
11591;DHT22;5851;54.050;9.974;2023-09-08T05:02:54;17.50;92.50
11591;DHT22;5851;54.050;9.974;2023-09-08T05:05:21;17.50;92.60
11591;DHT22;5851;54.050;9.974;2023-09-08T05:07:48;17.50;92.60
11591;DHT22;5851;54.050;9.974;2023-09-08T05:10:18;17.60;92.60
11591;DHT22;5851;54.050;9.974;2023-09-08T05:12:44;17.80;92.40
11591;DHT22;5851;54.050;9.974;2023-09-08T05:15:11;17.80;92.20
11591;DHT22;5851;54.050;9.974;2023-09-08T05:17:41;17.80;92.20
11591;DHT22;5851;54.050;9.974;2023-09-08T05:20:08;17.60;92.30
11591;DHT22;5851;54.050;9.974;2023-09-08T05:22:35;17.60;92.50
11591;DHT22;5851;54.050;9.974;2023-09-08T05:25:02;17.50;92.50
11591;DHT22;5851;54.050;9.974;2023-09-08T05:27:31;17.60;92.60
11591;DHT22;5851;54.050;9.974;2023-09-08T05:29:58;17.50;92.60
11591;DHT22;5851;54.050;9.974;2023-09-08T05:32:25;17.60;92.70
11591;DHT22;5851;54.050;9.974;2023-09-08T05:34:52;17.70;92.50
11591;DHT22;5851;54.050;9.974;2023-09-08T05:37:18;17.80;92.40
11591;DHT22;5851;54.050;9.974;2023-09-08T05:39:45;17.90;92.20
11591;DHT22;5851;54.050;9.974;2023-09-08T05:42:12;18.00;92.20
11591;DHT22;5851;54.050;9.974;2023-09-08T05:44:41;18.00;92.00
11591;DHT22;5851;54.050;9.974;2023-09-08T05:47:07;18.00;92.00
11591;DHT22;5851;54.050;9.974;2023-09-08T05:49:34;18.10;92.00
11591;DHT22;5851;54.050;9.974;2023-09-08T05:52:01;18.10;91.90
11591;DHT22;5851;54.050;9.974;2023-09-08T05:54:28;18.10;92.00
11591;DHT22;5851;54.050;9.974;2023-09-08T05:56:56;18.10;92.00
11591;DHT22;5851;54.050;9.974;2023-09-08T05:59:23;18.10;92.10
11591;DHT22;5851;54.050;9.974;2023-09-08T06:01:51;18.20;92.10
11591;DHT22;5851;54.050;9.974;2023-09-08T06:04:18;18.20;92.00
11591;DHT22;5851;54.050;9.974;2023-09-08T06:06:45;18.30;92.00
11591;DHT22;5851;54.050;9.974;2023-09-08T06:09:11;18.40;92.10
11591;DHT22;5851;54.050;9.974;2023-09-08T06:11:40;18.40;92.20
11591;DHT22;5851;54.050;9.974;2023-09-08T06:14:07;18.50;91.80
11591;DHT22;5851;54.050;9.974;2023-09-08T06:16:35;18.60;91.80
11591;DHT22;5851;54.050;9.974;2023-09-08T06:19:04;18.60;92.30
11591;DHT22;5851;54.050;9.974;2023-09-08T06:21:31;18.70;91.90
11591;DHT22;5851;54.050;9.974;2023-09-08T06:23:58;18.70;91.90
11591;DHT22;5851;54.050;9.974;2023-09-08T06:26:25;18.80;92.20
11591;DHT22;5851;54.050;9.974;2023-09-08T06:28:51;18.90;92.10
11591;DHT22;5851;54.050;9.974;2023-09-08T06:31:18;18.80;91.70
11591;DHT22;5851;54.050;9.974;2023-09-08T06:33:45;18.90;92.00
11591;DHT22;5851;54.050;9.974;2023-09-08T06:36:14;19.00;91.50
11591;DHT22;5851;54.050;9.974;2023-09-08T06:38:41;18.90;91.70
11591;DHT22;5851;54.050;9.974;2023-09-08T06:41:11;19.10;92.30
11591;DHT22;5851;54.050;9.974;2023-09-08T06:43:38;19.20;92.70
11591;DHT22;5851;54.050;9.974;2023-09-08T06:46:05;19.30;91.60
11591;DHT22;5851;54.050;9.974;2023-09-08T06:48:32;19.30;91.90
11591;DHT22;5851;54.050;9.974;2023-09-08T06:50:59;19.50;93.10
11591;DHT22;5851;54.050;9.974;2023-09-08T06:53:27;19.60;92.20
11591;DHT22;5851;54.050;9.974;2023-09-08T06:55:54;19.70;92.10
11591;DHT22;5851;54.050;9.974;2023-09-08T06:58:21;19.80;91.50
11591;DHT22;5851;54.050;9.974;2023-09-08T07:00:48;19.90;91.40
11591;DHT22;5851;54.050;9.974;2023-09-08T07:03:15;19.90;92.60
11591;DHT22;5851;54.050;9.974;2023-09-08T07:05:42;20.10;91.30
11591;DHT22;5851;54.050;9.974;2023-09-08T07:08:09;20.10;90.80
11591;DHT22;5851;54.050;9.974;2023-09-08T07:10:37;20.10;91.00
11591;DHT22;5851;54.050;9.974;2023-09-08T07:13:04;20.10;91.20
11591;DHT22;5851;54.050;9.974;2023-09-08T07:15:31;20.10;90.30
11591;DHT22;5851;54.050;9.974;2023-09-08T07:17:58;20.10;90.90
11591;DHT22;5851;54.050;9.974;2023-09-08T07:20:25;20.30;91.20
11591;DHT22;5851;54.050;9.974;2023-09-08T07:22:52;20.40;90.40
11591;DHT22;5851;54.050;9.974;2023-09-08T07:25:19;20.40;90.60
11591;DHT22;5851;54.050;9.974;2023-09-08T07:27:47;20.30;91.20
11591;DHT22;5851;54.050;9.974;2023-09-08T07:30:18;20.50;91.40
11591;DHT22;5851;54.050;9.974;2023-09-08T07:32:45;20.80;90.90
11591;DHT22;5851;54.050;9.974;2023-09-08T07:35:12;20.90;90.60
11591;DHT22;5851;54.050;9.974;2023-09-08T07:37:42;21.10;91.00
11591;DHT22;5851;54.050;9.974;2023-09-08T07:40:10;21.10;90.20
11591;DHT22;5851;54.050;9.974;2023-09-08T07:42:37;21.20;90.80
11591;DHT22;5851;54.050;9.974;2023-09-08T07:45:07;21.30;89.60
11591;DHT22;5851;54.050;9.974;2023-09-08T07:47:35;21.40;89.20
11591;DHT22;5851;54.050;9.974;2023-09-08T07:50:17;21.30;89.90
11591;DHT22;5851;54.050;9.974;2023-09-08T07:52:45;21.40;88.70
11591;DHT22;5851;54.050;9.974;2023-09-08T07:55:12;21.50;88.00
11591;DHT22;5851;54.050;9.974;2023-09-08T07:57:39;21.50;89.70
11591;DHT22;5851;54.050;9.974;2023-09-08T08:00:08;21.70;89.40
11591;DHT22;5851;54.050;9.974;2023-09-08T08:02:37;21.70;87.00
11591;DHT22;5851;54.050;9.974;2023-09-08T08:05:04;21.70;87.50
11591;DHT22;5851;54.050;9.974;2023-09-08T08:07:32;21.80;88.70
11591;DHT22;5851;54.050;9.974;2023-09-08T08:09:59;22.00;87.70
11591;DHT22;5851;54.050;9.974;2023-09-08T08:12:26;22.00;87.30
11591;DHT22;5851;54.050;9.974;2023-09-08T08:14:53;22.10;89.10
11591;DHT22;5851;54.050;9.974;2023-09-08T08:17:21;22.10;86.80
11591;DHT22;5851;54.050;9.974;2023-09-08T08:19:48;22.30;88.00
11591;DHT22;5851;54.050;9.974;2023-09-08T08:22:15;22.40;88.00
11591;DHT22;5851;54.050;9.974;2023-09-08T08:24:42;22.60;87.90
11591;DHT22;5851;54.050;9.974;2023-09-08T08:27:09;22.60;86.20
11591;DHT22;5851;54.050;9.974;2023-09-08T08:29:36;22.50;87.20
11591;DHT22;5851;54.050;9.974;2023-09-08T08:32:03;22.30;85.00
11591;DHT22;5851;54.050;9.974;2023-09-08T08:34:32;22.50;87.60
11591;DHT22;5851;54.050;9.974;2023-09-08T08:36:58;22.70;86.20
11591;DHT22;5851;54.050;9.974;2023-09-08T08:39:25;22.80;86.60
11591;DHT22;5851;54.050;9.974;2023-09-08T08:41:52;22.90;85.60
11591;DHT22;5851;54.050;9.974;2023-09-08T08:44:19;22.80;86.10
11591;DHT22;5851;54.050;9.974;2023-09-08T08:46:47;22.90;86.60
11591;DHT22;5851;54.050;9.974;2023-09-08T08:49:15;23.00;85.20
11591;DHT22;5851;54.050;9.974;2023-09-08T08:51:44;23.00;84.90
11591;DHT22;5851;54.050;9.974;2023-09-08T08:54:13;22.90;84.80
11591;DHT22;5851;54.050;9.974;2023-09-08T08:56:41;22.80;82.20
11591;DHT22;5851;54.050;9.974;2023-09-08T08:59:09;22.60;83.50
11591;DHT22;5851;54.050;9.974;2023-09-08T09:01:37;23.00;84.10
11591;DHT22;5851;54.050;9.974;2023-09-08T09:04:05;23.30;83.50
11591;DHT22;5851;54.050;9.974;2023-09-08T09:06:33;23.40;83.90
11591;DHT22;5851;54.050;9.974;2023-09-08T09:09:02;23.50;82.90
11591;DHT22;5851;54.050;9.974;2023-09-08T09:11:30;23.50;81.70
11591;DHT22;5851;54.050;9.974;2023-09-08T09:13:57;23.60;82.10
11591;DHT22;5851;54.050;9.974;2023-09-08T09:16:24;23.60;84.20
11591;DHT22;5851;54.050;9.974;2023-09-08T09:18:56;23.60;81.10
11591;DHT22;5851;54.050;9.974;2023-09-08T09:21:23;23.70;82.80
11591;DHT22;5851;54.050;9.974;2023-09-08T09:23:51;23.70;83.30
11591;DHT22;5851;54.050;9.974;2023-09-08T09:26:26;23.80;81.20
11591;DHT22;5851;54.050;9.974;2023-09-08T09:28:53;23.80;82.10
11591;DHT22;5851;54.050;9.974;2023-09-08T09:31:23;23.80;81.40
11591;DHT22;5851;54.050;9.974;2023-09-08T09:34:01;23.90;81.80
11591;DHT22;5851;54.050;9.974;2023-09-08T09:36:30;23.90;81.50
11591;DHT22;5851;54.050;9.974;2023-09-08T09:38:58;24.00;78.90
11591;DHT22;5851;54.050;9.974;2023-09-08T09:41:29;24.10;80.70
11591;DHT22;5851;54.050;9.974;2023-09-08T09:43:56;24.20;79.50
11591;DHT22;5851;54.050;9.974;2023-09-08T09:46:23;24.20;79.30
11591;DHT22;5851;54.050;9.974;2023-09-08T09:48:51;24.30;79.20
11591;DHT22;5851;54.050;9.974;2023-09-08T09:51:22;24.30;79.00
11591;DHT22;5851;54.050;9.974;2023-09-08T09:53:50;24.30;79.10
11591;DHT22;5851;54.050;9.974;2023-09-08T09:56:17;24.30;77.30
11591;DHT22;5851;54.050;9.974;2023-09-08T09:58:46;24.30;78.20
11591;DHT22;5851;54.050;9.974;2023-09-08T10:01:13;24.40;79.00
11591;DHT22;5851;54.050;9.974;2023-09-08T10:03:41;24.40;79.20
11591;DHT22;5851;54.050;9.974;2023-09-08T10:06:08;24.50;78.70
11591;DHT22;5851;54.050;9.974;2023-09-08T10:08:35;24.50;78.00
11591;DHT22;5851;54.050;9.974;2023-09-08T10:11:06;24.50;77.10
11591;DHT22;5851;54.050;9.974;2023-09-08T10:13:39;24.60;76.40
11591;DHT22;5851;54.050;9.974;2023-09-08T10:16:08;24.80;78.20
11591;DHT22;5851;54.050;9.974;2023-09-08T10:18:41;24.80;79.20
11591;DHT22;5851;54.050;9.974;2023-09-08T10:21:12;24.80;76.60
11591;DHT22;5851;54.050;9.974;2023-09-08T10:23:41;24.90;76.90
11591;DHT22;5851;54.050;9.974;2023-09-08T10:26:11;24.80;77.50
11591;DHT22;5851;54.050;9.974;2023-09-08T10:28:38;24.80;76.80
11591;DHT22;5851;54.050;9.974;2023-09-08T10:31:09;24.90;76.20
11591;DHT22;5851;54.050;9.974;2023-09-08T10:33:37;24.80;75.20
11591;DHT22;5851;54.050;9.974;2023-09-08T10:36:05;25.00;76.10
11591;DHT22;5851;54.050;9.974;2023-09-08T10:38:34;25.00;77.90
11591;DHT22;5851;54.050;9.974;2023-09-08T10:41:26;25.20;75.00
11591;DHT22;5851;54.050;9.974;2023-09-08T10:43:55;25.20;72.10
11591;DHT22;5851;54.050;9.974;2023-09-08T10:46:26;25.20;74.50
11591;DHT22;5851;54.050;9.974;2023-09-08T10:48:54;25.30;75.60
11591;DHT22;5851;54.050;9.974;2023-09-08T10:51:22;25.20;73.80
11591;DHT22;5851;54.050;9.974;2023-09-08T10:53:51;25.00;74.80
11591;DHT22;5851;54.050;9.974;2023-09-08T10:56:18;25.20;74.50
11591;DHT22;5851;54.050;9.974;2023-09-08T10:58:50;25.20;73.40
11591;DHT22;5851;54.050;9.974;2023-09-08T11:01:20;25.20;74.60
11591;DHT22;5851;54.050;9.974;2023-09-08T11:03:49;25.30;71.20
11591;DHT22;5851;54.050;9.974;2023-09-08T11:06:17;25.30;72.50
11591;DHT22;5851;54.050;9.974;2023-09-08T11:08:45;25.20;73.00
11591;DHT22;5851;54.050;9.974;2023-09-08T11:11:13;25.20;72.80
11591;DHT22;5851;54.050;9.974;2023-09-08T11:13:41;25.20;73.20
11591;DHT22;5851;54.050;9.974;2023-09-08T11:16:11;25.40;72.20
11591;DHT22;5851;54.050;9.974;2023-09-08T11:18:38;25.40;72.20
11591;DHT22;5851;54.050;9.974;2023-09-08T11:21:09;25.50;72.30
11591;DHT22;5851;54.050;9.974;2023-09-08T11:23:36;25.50;72.40
11591;DHT22;5851;54.050;9.974;2023-09-08T11:26:03;25.50;72.30
11591;DHT22;5851;54.050;9.974;2023-09-08T11:28:32;25.40;72.10
11591;DHT22;5851;54.050;9.974;2023-09-08T11:30:59;25.40;72.60
11591;DHT22;5851;54.050;9.974;2023-09-08T11:33:25;25.40;71.90
11591;DHT22;5851;54.050;9.974;2023-09-08T11:35:53;25.50;71.40
11591;DHT22;5851;54.050;9.974;2023-09-08T11:38:26;25.70;72.90
11591;DHT22;5851;54.050;9.974;2023-09-08T11:40:53;25.60;71.90
11591;DHT22;5851;54.050;9.974;2023-09-08T11:43:21;25.60;71.40
11591;DHT22;5851;54.050;9.974;2023-09-08T11:45:48;25.60;71.60
11591;DHT22;5851;54.050;9.974;2023-09-08T11:48:15;25.60;70.40
11591;DHT22;5851;54.050;9.974;2023-09-08T11:50:43;25.70;70.20
11591;DHT22;5851;54.050;9.974;2023-09-08T11:53:10;25.60;69.50
11591;DHT22;5851;54.050;9.974;2023-09-08T11:55:38;25.70;69.00
11591;DHT22;5851;54.050;9.974;2023-09-08T11:58:06;25.70;69.10
11591;DHT22;5851;54.050;9.974;2023-09-08T12:00:33;25.80;70.80
11591;DHT22;5851;54.050;9.974;2023-09-08T12:03:10;26.10;68.00
11591;DHT22;5851;54.050;9.974;2023-09-08T12:05:37;26.00;71.10
11591;DHT22;5851;54.050;9.974;2023-09-08T12:08:05;26.00;69.80
11591;DHT22;5851;54.050;9.974;2023-09-08T12:10:39;26.10;69.10
11591;DHT22;5851;54.050;9.974;2023-09-08T12:13:07;26.10;69.20
11591;DHT22;5851;54.050;9.974;2023-09-08T12:15:35;26.10;67.40
11591;DHT22;5851;54.050;9.974;2023-09-08T12:18:04;26.20;68.10
11591;DHT22;5851;54.050;9.974;2023-09-08T12:20:32;26.10;68.00
11591;DHT22;5851;54.050;9.974;2023-09-08T12:23:01;26.00;68.30
11591;DHT22;5851;54.050;9.974;2023-09-08T12:25:29;26.10;69.10
11591;DHT22;5851;54.050;9.974;2023-09-08T12:27:59;26.10;68.20
11591;DHT22;5851;54.050;9.974;2023-09-08T12:30:26;26.40;68.00
11591;DHT22;5851;54.050;9.974;2023-09-08T12:32:59;26.50;67.80
11591;DHT22;5851;54.050;9.974;2023-09-08T12:35:26;26.30;66.30
11591;DHT22;5851;54.050;9.974;2023-09-08T12:37:57;26.20;66.60
11591;DHT22;5851;54.050;9.974;2023-09-08T12:40:25;26.20;66.60
11591;DHT22;5851;54.050;9.974;2023-09-08T12:42:52;26.20;66.40
11591;DHT22;5851;54.050;9.974;2023-09-08T12:45:22;26.20;66.80
11591;DHT22;5851;54.050;9.974;2023-09-08T12:47:49;26.30;67.60
11591;DHT22;5851;54.050;9.974;2023-09-08T12:50:16;26.20;67.90
11591;DHT22;5851;54.050;9.974;2023-09-08T12:52:43;26.30;67.80
11591;DHT22;5851;54.050;9.974;2023-09-08T12:55:10;26.30;68.80
11591;DHT22;5851;54.050;9.974;2023-09-08T12:57:37;26.30;67.40
11591;DHT22;5851;54.050;9.974;2023-09-08T13:00:05;26.20;67.50
11591;DHT22;5851;54.050;9.974;2023-09-08T13:02:34;26.40;67.10
11591;DHT22;5851;54.050;9.974;2023-09-08T13:05:01;26.40;67.30
11591;DHT22;5851;54.050;9.974;2023-09-08T13:07:28;26.40;67.40
11591;DHT22;5851;54.050;9.974;2023-09-08T13:09:55;26.50;66.50
11591;DHT22;5851;54.050;9.974;2023-09-08T13:12:21;26.60;67.10
11591;DHT22;5851;54.050;9.974;2023-09-08T13:14:48;26.50;67.10
11591;DHT22;5851;54.050;9.974;2023-09-08T13:17:15;26.50;67.10
11591;DHT22;5851;54.050;9.974;2023-09-08T13:19:44;26.40;65.50
11591;DHT22;5851;54.050;9.974;2023-09-08T13:22:11;26.60;65.60
11591;DHT22;5851;54.050;9.974;2023-09-08T13:24:38;26.40;65.20
11591;DHT22;5851;54.050;9.974;2023-09-08T13:27:05;26.50;66.40
11591;DHT22;5851;54.050;9.974;2023-09-08T13:29:32;26.60;65.80
11591;DHT22;5851;54.050;9.974;2023-09-08T13:31:59;26.70;64.60
11591;DHT22;5851;54.050;9.974;2023-09-08T13:34:26;26.70;64.10
11591;DHT22;5851;54.050;9.974;2023-09-08T13:36:54;26.60;64.50
11591;DHT22;5851;54.050;9.974;2023-09-08T13:39:21;26.70;64.60
11591;DHT22;5851;54.050;9.974;2023-09-08T13:41:49;26.50;64.60
11591;DHT22;5851;54.050;9.974;2023-09-08T13:44:17;26.60;63.70
11591;DHT22;5851;54.050;9.974;2023-09-08T13:46:45;26.50;64.50
11591;DHT22;5851;54.050;9.974;2023-09-08T13:49:12;26.80;63.70
11591;DHT22;5851;54.050;9.974;2023-09-08T13:51:39;26.80;62.70
11591;DHT22;5851;54.050;9.974;2023-09-08T13:54:08;26.70;61.30
11591;DHT22;5851;54.050;9.974;2023-09-08T13:56:38;26.60;63.00
11591;DHT22;5851;54.050;9.974;2023-09-08T13:59:05;26.60;64.10
11591;DHT22;5851;54.050;9.974;2023-09-08T14:01:33;26.50;64.20
11591;DHT22;5851;54.050;9.974;2023-09-08T14:04:00;26.50;64.80
11591;DHT22;5851;54.050;9.974;2023-09-08T14:06:27;26.50;64.50
11591;DHT22;5851;54.050;9.974;2023-09-08T14:08:54;26.70;64.30
11591;DHT22;5851;54.050;9.974;2023-09-08T14:11:26;26.60;63.10
11591;DHT22;5851;54.050;9.974;2023-09-08T14:13:53;26.60;64.20
11591;DHT22;5851;54.050;9.974;2023-09-08T14:16:20;26.70;63.30
11591;DHT22;5851;54.050;9.974;2023-09-08T14:18:47;26.70;62.90
11591;DHT22;5851;54.050;9.974;2023-09-08T14:21:14;26.50;63.30
11591;DHT22;5851;54.050;9.974;2023-09-08T14:23:44;26.50;63.80
11591;DHT22;5851;54.050;9.974;2023-09-08T14:26:11;26.60;63.00
11591;DHT22;5851;54.050;9.974;2023-09-08T14:28:39;26.50;62.60
11591;DHT22;5851;54.050;9.974;2023-09-08T14:31:06;26.70;62.00
11591;DHT22;5851;54.050;9.974;2023-09-08T14:33:33;26.70;63.10
11591;DHT22;5851;54.050;9.974;2023-09-08T14:36:01;26.90;62.50
11591;DHT22;5851;54.050;9.974;2023-09-08T14:38:30;27.10;62.60
11591;DHT22;5851;54.050;9.974;2023-09-08T14:40:58;27.00;62.30
11591;DHT22;5851;54.050;9.974;2023-09-08T14:43:27;26.90;62.60
11591;DHT22;5851;54.050;9.974;2023-09-08T14:45:56;26.80;62.80
11591;DHT22;5851;54.050;9.974;2023-09-08T14:48:23;26.90;62.80
11591;DHT22;5851;54.050;9.974;2023-09-08T14:50:51;26.70;63.40
11591;DHT22;5851;54.050;9.974;2023-09-08T14:53:18;26.80;62.40
11591;DHT22;5851;54.050;9.974;2023-09-08T14:55:46;26.80;63.50
11591;DHT22;5851;54.050;9.974;2023-09-08T14:58:16;26.70;63.10
11591;DHT22;5851;54.050;9.974;2023-09-08T15:00:44;27.00;62.30
11591;DHT22;5851;54.050;9.974;2023-09-08T15:03:13;27.00;61.60
11591;DHT22;5851;54.050;9.974;2023-09-08T15:05:40;27.10;60.80
11591;DHT22;5851;54.050;9.974;2023-09-08T15:08:07;27.10;60.90
11591;DHT22;5851;54.050;9.974;2023-09-08T15:10:34;27.10;62.10
11591;DHT22;5851;54.050;9.974;2023-09-08T15:13:01;27.00;61.90
11591;DHT22;5851;54.050;9.974;2023-09-08T15:15:28;27.00;62.80
11591;DHT22;5851;54.050;9.974;2023-09-08T15:17:56;26.90;61.80
11591;DHT22;5851;54.050;9.974;2023-09-08T15:20:24;26.80;62.40
11591;DHT22;5851;54.050;9.974;2023-09-08T15:22:51;26.80;63.30
11591;DHT22;5851;54.050;9.974;2023-09-08T15:25:18;26.70;63.80
11591;DHT22;5851;54.050;9.974;2023-09-08T15:27:46;26.60;63.50
11591;DHT22;5851;54.050;9.974;2023-09-08T15:30:16;26.70;65.20
11591;DHT22;5851;54.050;9.974;2023-09-08T15:32:43;26.70;64.90
11591;DHT22;5851;54.050;9.974;2023-09-08T15:35:10;26.70;65.90
11591;DHT22;5851;54.050;9.974;2023-09-08T15:37:39;26.80;65.40
11591;DHT22;5851;54.050;9.974;2023-09-08T15:40:07;26.80;65.50
11591;DHT22;5851;54.050;9.974;2023-09-08T15:42:39;26.80;65.60
11591;DHT22;5851;54.050;9.974;2023-09-08T15:45:07;26.70;66.00
11591;DHT22;5851;54.050;9.974;2023-09-08T15:47:33;27.00;64.80
11591;DHT22;5851;54.050;9.974;2023-09-08T15:50:00;27.00;65.60